createdAt,value
2023-03-29T00:00:14.783Z,22.33
2023-03-29T00:01:35.051Z,22.34
2023-03-29T00:02:15.835Z,22.32
2023-03-29T00:03:14.938Z,22.32
2023-03-29T00:04:14.816Z,22.33
2023-03-29T00:05:14.785Z,22.33
2023-03-29T00:06:14.774Z,22.33
2023-03-29T00:07:14.752Z,22.33
2023-03-29T00:08:15.003Z,22.33
2023-03-29T00:09:14.735Z,22.34
2023-03-29T00:10:14.712Z,22.33
2023-03-29T00:11:14.684Z,22.33
2023-03-29T00:12:14.681Z,22.33
2023-03-29T00:13:14.720Z,22.33
2023-03-29T00:14:14.758Z,22.33
2023-03-29T00:15:14.800Z,22.33
2023-03-29T00:16:14.859Z,22.33
2023-03-29T00:17:14.928Z,22.33
2023-03-29T00:18:14.919Z,22.33
2023-03-29T00:19:14.954Z,22.33
2023-03-29T00:20:14.993Z,22.33
2023-03-29T00:21:15.040Z,22.33
2023-03-29T00:22:15.076Z,22.33
2023-03-29T00:23:15.111Z,22.32
2023-03-29T00:24:15.162Z,22.32
2023-03-29T00:25:15.204Z,22.32
2023-03-29T00:26:15.246Z,22.32
2023-03-29T00:27:15.284Z,22.32
2023-03-29T00:28:15.328Z,22.32
2023-03-29T00:29:15.366Z,22.32
2023-03-29T00:30:15.429Z,22.32
2023-03-29T00:31:15.484Z,22.32
2023-03-29T00:32:15.485Z,22.32
2023-03-29T00:33:15.517Z,22.31
2023-03-29T00:34:15.575Z,22.32
2023-03-29T00:35:15.595Z,22.32
2023-03-29T00:36:15.633Z,22.32
2023-03-29T00:37:15.691Z,22.32
2023-03-29T00:38:15.712Z,22.32
2023-03-29T00:39:15.747Z,22.32
2023-03-29T00:40:15.843Z,22.32
2023-03-29T00:41:15.824Z,22.31
2023-03-29T00:42:15.870Z,22.31
2023-03-29T00:43:15.900Z,22.32
2023-03-29T00:44:15.937Z,22.31
2023-03-29T00:45:15.979Z,22.32
2023-03-29T00:46:16.069Z,22.33
2023-03-29T00:47:16.048Z,22.32
2023-03-29T00:48:16.084Z,22.32
2023-03-29T00:49:16.127Z,22.32
2023-03-29T00:50:16.164Z,22.32
2023-03-29T00:51:16.207Z,22.32
2023-03-29T00:52:16.249Z,22.31
2023-03-29T00:53:16.283Z,22.31
2023-03-29T00:54:16.332Z,22.32
2023-03-29T00:55:16.370Z,22.32
2023-03-29T00:56:16.409Z,22.32
2023-03-29T00:57:17.126Z,22.32
2023-03-29T00:58:16.496Z,22.31
2023-03-29T00:59:16.547Z,22.31
2023-03-29T01:00:16.582Z,22.31
2023-03-29T01:01:16.667Z,22.30
2023-03-29T01:02:16.725Z,22.30
2023-03-29T01:03:16.837Z,22.30
2023-03-29T01:04:16.791Z,22.31
2023-03-29T01:05:16.844Z,22.30
2023-03-29T01:06:16.897Z,22.30
2023-03-29T01:07:17.017Z,22.30
2023-03-29T01:08:16.973Z,22.30
2023-03-29T01:09:17.021Z,22.30
2023-03-29T01:10:17.068Z,22.30
2023-03-29T01:11:17.113Z,22.30
2023-03-29T01:12:17.177Z,22.30
2023-03-29T01:13:17.207Z,22.30
2023-03-29T01:14:17.248Z,22.29
2023-03-29T01:15:17.289Z,22.30
2023-03-29T01:16:17.380Z,22.30
2023-03-29T01:17:17.386Z,22.30
2023-03-29T01:18:17.431Z,22.30
2023-03-29T01:19:17.527Z,22.29
2023-03-29T01:20:17.536Z,22.30
2023-03-29T01:21:17.606Z,22.29
2023-03-29T01:22:17.602Z,22.29
2023-03-29T01:23:17.654Z,22.29
2023-03-29T01:24:17.718Z,22.29
2023-03-29T01:25:17.742Z,22.28
2023-03-29T01:26:17.795Z,22.29
2023-03-29T01:27:17.848Z,22.28
2023-03-29T01:28:17.906Z,22.29
2023-03-29T01:29:17.954Z,22.28
2023-03-29T01:30:17.987Z,22.29
2023-03-29T01:31:18.052Z,22.29
2023-03-29T01:32:18.099Z,22.28
2023-03-29T01:33:18.125Z,22.28
2023-03-29T01:34:18.191Z,22.28
2023-03-29T01:35:18.231Z,22.27
2023-03-29T01:36:18.347Z,22.28
2023-03-29T01:37:18.322Z,22.28
2023-03-29T01:38:18.357Z,22.27
2023-03-29T01:39:18.411Z,22.28
2023-03-29T01:40:18.449Z,22.28
2023-03-29T01:41:18.487Z,22.27
2023-03-29T01:42:18.532Z,22.28
2023-03-29T01:43:18.574Z,22.28
2023-03-29T01:44:18.628Z,22.28
2023-03-29T01:45:18.655Z,22.27
2023-03-29T01:46:18.737Z,22.28
2023-03-29T01:47:18.756Z,22.27
2023-03-29T01:48:18.797Z,22.27
2023-03-29T01:49:18.843Z,22.27
2023-03-29T01:50:18.889Z,22.27
2023-03-29T01:51:18.917Z,22.27
2023-03-29T01:52:18.969Z,22.27
2023-03-29T01:53:19.010Z,22.27
2023-03-29T01:54:19.041Z,22.27
2023-03-29T01:55:19.074Z,22.26
2023-03-29T01:56:19.112Z,22.26
2023-03-29T01:57:19.216Z,22.26
2023-03-29T01:58:19.184Z,22.27
2023-03-29T01:59:19.236Z,22.26
2023-03-29T02:00:19.273Z,22.26
2023-03-29T02:01:19.322Z,22.27
2023-03-29T02:02:19.376Z,22.27
2023-03-29T02:03:19.468Z,22.27
2023-03-29T02:04:19.432Z,22.27
2023-03-29T02:05:19.470Z,22.26
2023-03-29T02:06:19.508Z,22.27
2023-03-29T02:07:19.551Z,22.27
2023-03-29T02:08:19.596Z,22.27
2023-03-29T02:09:19.645Z,22.26
2023-03-29T02:10:19.701Z,22.27
2023-03-29T02:11:19.730Z,22.26
2023-03-29T02:12:19.775Z,22.26
2023-03-29T02:13:19.823Z,22.26
2023-03-29T02:14:19.877Z,22.26
2023-03-29T02:15:19.932Z,22.26
2023-03-29T02:16:20.013Z,22.27
2023-03-29T02:17:20.032Z,22.26
2023-03-29T02:18:20.056Z,22.26
2023-03-29T02:19:20.104Z,22.26
2023-03-29T02:20:20.158Z,22.26
2023-03-29T02:21:20.186Z,22.26
2023-03-29T02:22:20.230Z,22.26
2023-03-29T02:23:20.294Z,22.26
2023-03-29T02:24:20.332Z,22.26
2023-03-29T02:25:20.371Z,22.26
2023-03-29T02:26:20.417Z,22.25
2023-03-29T02:27:20.465Z,22.26
2023-03-29T02:28:20.513Z,22.25
2023-03-29T02:29:20.554Z,22.25
2023-03-29T02:30:20.600Z,22.25
2023-03-29T02:31:20.696Z,22.25
2023-03-29T02:32:20.684Z,22.25
2023-03-29T02:33:20.732Z,22.26
2023-03-29T02:34:20.777Z,22.25
2023-03-29T02:35:20.809Z,22.25
2023-03-29T02:36:20.908Z,22.25
2023-03-29T02:37:20.877Z,22.26
2023-03-29T02:38:20.929Z,22.25
2023-03-29T02:39:20.974Z,22.25
2023-03-29T02:40:21.043Z,22.25
2023-03-29T02:41:21.062Z,22.25
2023-03-29T02:42:21.100Z,22.25
2023-03-29T02:43:21.880Z,22.25
2023-03-29T02:44:21.199Z,22.25
2023-03-29T02:45:21.233Z,22.25
2023-03-29T02:46:21.305Z,22.25
2023-03-29T02:47:21.317Z,22.25
2023-03-29T02:48:21.355Z,22.25
2023-03-29T02:49:21.413Z,22.25
2023-03-29T02:50:21.454Z,22.25
2023-03-29T02:51:21.499Z,22.24
2023-03-29T02:52:21.552Z,22.25
2023-03-29T02:53:21.595Z,22.25
2023-03-29T02:54:21.639Z,22.25
2023-03-29T02:55:21.685Z,22.25
2023-03-29T02:56:21.724Z,22.24
2023-03-29T02:57:21.844Z,22.25
2023-03-29T02:58:21.817Z,22.26
2023-03-29T02:59:21.865Z,22.25
2023-03-29T03:00:21.905Z,22.26
2023-03-29T03:01:22.023Z,22.26
2023-03-29T03:02:21.993Z,22.26
2023-03-29T03:03:22.137Z,22.26
2023-03-29T03:04:22.105Z,22.27
2023-03-29T03:05:22.137Z,22.27
2023-03-29T03:06:22.195Z,22.27
2023-03-29T03:07:22.248Z,22.28
2023-03-29T03:08:22.276Z,22.28
2023-03-29T03:09:22.347Z,22.29
2023-03-29T03:10:22.360Z,22.29
2023-03-29T03:11:22.400Z,22.30
2023-03-29T03:12:22.452Z,22.31
2023-03-29T03:13:22.494Z,22.31
2023-03-29T03:14:22.537Z,22.31
2023-03-29T03:15:22.567Z,22.33
2023-03-29T03:16:22.648Z,22.33
2023-03-29T03:17:22.663Z,22.35
2023-03-29T03:18:22.690Z,22.36
2023-03-29T03:19:22.721Z,22.36
2023-03-29T03:20:22.746Z,22.37
2023-03-29T03:21:22.782Z,22.37
2023-03-29T03:22:22.801Z,22.38
2023-03-29T03:23:22.810Z,22.39
2023-03-29T03:24:22.840Z,22.40
2023-03-29T03:25:22.856Z,22.41
2023-03-29T03:26:22.879Z,22.41
2023-03-29T03:27:22.907Z,22.42
2023-03-29T03:28:22.933Z,22.43
2023-03-29T03:29:22.948Z,22.44
2023-03-29T03:30:22.980Z,22.44
2023-03-29T03:31:23.016Z,22.45
2023-03-29T03:32:23.020Z,22.46
2023-03-29T03:33:23.035Z,22.46
2023-03-29T03:34:23.073Z,22.47
2023-03-29T03:35:23.077Z,22.48
2023-03-29T03:36:23.101Z,22.49
2023-03-29T03:37:23.113Z,22.49
2023-03-29T03:38:23.130Z,22.50
2023-03-29T03:39:23.179Z,22.51
2023-03-29T03:40:23.178Z,22.51
2023-03-29T03:41:23.174Z,22.52
2023-03-29T03:42:23.180Z,22.52
2023-03-29T03:43:23.194Z,22.52
2023-03-29T03:44:23.213Z,22.53
2023-03-29T03:45:23.226Z,22.54
2023-03-29T03:46:23.298Z,22.55
2023-03-29T03:47:23.296Z,22.55
2023-03-29T03:48:23.276Z,22.56
2023-03-29T03:49:23.306Z,22.56
2023-03-29T03:50:23.331Z,22.56
2023-03-29T03:51:23.339Z,22.57
2023-03-29T03:52:23.342Z,22.57
2023-03-29T03:53:23.356Z,22.58
2023-03-29T03:54:23.378Z,22.59
2023-03-29T03:55:23.390Z,22.58
2023-03-29T03:56:23.388Z,22.59
2023-03-29T03:57:23.426Z,22.60
2023-03-29T03:58:23.417Z,22.61
2023-03-29T03:59:23.431Z,22.61
2023-03-29T04:00:23.439Z,22.61
2023-03-29T04:01:23.455Z,22.62
2023-03-29T04:02:23.492Z,22.61
2023-03-29T04:03:23.549Z,22.61
2023-03-29T04:04:23.579Z,22.62
2023-03-29T04:05:23.449Z,22.62
2023-03-29T04:06:23.614Z,22.62
2023-03-29T04:07:23.459Z,22.63
2023-03-29T04:08:23.471Z,22.62
2023-03-29T04:09:23.482Z,22.64
2023-03-29T04:10:23.477Z,22.64
2023-03-29T04:11:23.494Z,22.64
2023-03-29T04:12:23.501Z,22.64
2023-03-29T04:13:23.500Z,22.64
2023-03-29T04:14:23.506Z,22.65
2023-03-29T04:15:23.502Z,22.65
2023-03-29T04:16:23.547Z,22.65
2023-03-29T04:17:23.547Z,22.65
2023-03-29T04:18:23.597Z,22.65
2023-03-29T04:19:23.531Z,22.65
2023-03-29T04:20:23.517Z,22.65
2023-03-29T04:21:23.540Z,22.66
2023-03-29T04:22:23.538Z,22.66
2023-03-29T04:23:23.538Z,22.66
2023-03-29T04:24:23.548Z,22.66
2023-03-29T04:25:23.544Z,22.66
2023-03-29T04:26:23.565Z,22.65
2023-03-29T04:27:23.561Z,22.66
2023-03-29T04:28:23.567Z,22.66
2023-03-29T04:29:23.582Z,22.66
2023-03-29T04:30:23.589Z,22.66
2023-03-29T04:31:23.633Z,22.67
2023-03-29T04:32:23.647Z,22.67
2023-03-29T04:33:23.599Z,22.67
2023-03-29T04:34:23.666Z,22.67
2023-03-29T04:35:23.623Z,22.67
2023-03-29T04:36:23.649Z,22.67
2023-03-29T04:37:23.622Z,22.67
2023-03-29T04:38:23.693Z,22.67
2023-03-29T04:39:23.653Z,22.68
2023-03-29T04:40:23.664Z,22.68
2023-03-29T04:41:23.687Z,22.68
2023-03-29T04:42:23.671Z,22.68
2023-03-29T04:43:23.714Z,22.69
2023-03-29T04:44:23.700Z,22.69
2023-03-29T04:45:23.729Z,22.69
2023-03-29T04:46:23.779Z,22.69
2023-03-29T04:47:23.808Z,22.69
2023-03-29T04:48:23.732Z,22.69
2023-03-29T04:49:25.993Z,22.70
2023-03-29T04:50:23.789Z,22.69
2023-03-29T04:51:23.787Z,22.70
2023-03-29T04:52:24.509Z,22.70
2023-03-29T04:53:23.814Z,22.70
2023-03-29T04:54:23.828Z,22.70
2023-03-29T04:55:23.841Z,22.70
2023-03-29T04:56:23.849Z,22.70
2023-03-29T04:57:23.954Z,22.70
2023-03-29T04:58:27.120Z,22.70
2023-03-29T04:59:24.837Z,22.70
2023-03-29T05:00:23.838Z,22.69
2023-03-29T05:01:23.877Z,22.70
2023-03-29T05:02:23.833Z,22.70
2023-03-29T05:03:23.782Z,22.70
2023-03-29T05:04:23.806Z,22.70
2023-03-29T05:05:23.763Z,22.71
2023-03-29T05:06:23.730Z,22.70
2023-03-29T05:07:23.714Z,22.70
2023-03-29T05:08:23.700Z,22.70
2023-03-29T05:09:23.693Z,22.70
2023-03-29T05:10:23.676Z,22.70
2023-03-29T05:11:23.654Z,22.71
2023-03-29T05:12:23.634Z,22.70
2023-03-29T05:13:23.617Z,22.70
2023-03-29T05:14:23.603Z,22.71
2023-03-29T05:15:23.589Z,22.71
2023-03-29T05:16:23.626Z,22.70
2023-03-29T05:17:23.592Z,22.70
2023-03-29T05:18:23.553Z,22.70
2023-03-29T05:19:23.543Z,22.69
2023-03-29T05:20:23.719Z,22.69
2023-03-29T05:21:23.586Z,22.69
2023-03-29T05:22:23.596Z,22.69
2023-03-29T05:23:23.615Z,22.69
2023-03-29T05:24:23.634Z,22.70
2023-03-29T05:25:23.663Z,22.70
2023-03-29T05:26:23.668Z,22.70
2023-03-29T05:27:23.679Z,22.70
2023-03-29T05:28:23.689Z,22.71
2023-03-29T05:29:23.737Z,22.71
2023-03-29T05:30:23.721Z,22.72
2023-03-29T05:31:23.754Z,22.73
2023-03-29T05:32:23.843Z,22.74
2023-03-29T05:33:23.755Z,22.74
2023-03-29T05:34:23.848Z,22.74
2023-03-29T05:35:23.767Z,22.74
2023-03-29T05:36:23.759Z,22.74
2023-03-29T05:37:23.762Z,22.74
2023-03-29T05:38:23.767Z,22.75
2023-03-29T05:39:23.775Z,22.75
2023-03-29T05:40:23.778Z,22.76
2023-03-29T05:41:23.779Z,22.75
2023-03-29T05:42:23.778Z,22.75
2023-03-29T05:43:23.783Z,22.75
2023-03-29T05:44:23.780Z,22.75
2023-03-29T05:45:23.813Z,22.76
2023-03-29T05:46:23.784Z,22.75
2023-03-29T05:47:23.806Z,22.75
2023-03-29T05:48:23.797Z,22.76
2023-03-29T05:49:23.798Z,22.75
2023-03-29T05:50:23.783Z,22.75
2023-03-29T05:51:23.772Z,22.75
2023-03-29T05:52:23.789Z,22.75
2023-03-29T05:53:23.782Z,22.75
2023-03-29T05:54:23.781Z,22.76
2023-03-29T05:55:23.794Z,22.75
2023-03-29T05:56:23.807Z,22.75
2023-03-29T05:57:23.899Z,22.75
2023-03-29T05:58:23.818Z,22.75
2023-03-29T05:59:23.824Z,22.75
2023-03-29T06:00:24.052Z,22.75
2023-03-29T06:01:23.837Z,22.75
2023-03-29T06:02:23.963Z,22.74
2023-03-29T06:03:23.946Z,22.74
2023-03-29T06:04:23.956Z,22.75
2023-03-29T06:05:24.744Z,22.75
2023-03-29T06:06:23.883Z,22.75
2023-03-29T06:07:23.883Z,22.75
2023-03-29T06:08:23.900Z,22.74
2023-03-29T06:09:23.909Z,22.75
2023-03-29T06:10:23.934Z,22.74
2023-03-29T06:11:23.932Z,22.74
2023-03-29T06:12:23.935Z,22.75
2023-03-29T06:13:23.951Z,22.74
2023-03-29T06:14:23.949Z,22.75
2023-03-29T06:15:23.966Z,22.74
2023-03-29T06:16:24.001Z,22.74
2023-03-29T06:17:24.076Z,22.74
2023-03-29T06:18:23.987Z,22.74
2023-03-29T06:19:23.986Z,22.75
2023-03-29T06:20:24.003Z,22.73
2023-03-29T06:21:24.011Z,22.74
2023-03-29T06:22:24.011Z,22.74
2023-03-29T06:23:24.020Z,22.73
2023-03-29T06:24:24.036Z,22.74
2023-03-29T06:25:24.031Z,22.75
2023-03-29T06:26:24.078Z,22.76
2023-03-29T06:27:24.069Z,22.77
2023-03-29T06:28:24.069Z,22.76
2023-03-29T06:29:24.130Z,22.76
2023-03-29T06:30:24.095Z,22.78
2023-03-29T06:31:24.164Z,22.79
2023-03-29T06:32:24.125Z,22.81
2023-03-29T06:33:24.107Z,22.84
2023-03-29T06:34:24.125Z,22.87
2023-03-29T06:35:24.299Z,22.90
2023-03-29T06:36:24.154Z,22.92
2023-03-29T06:37:24.163Z,22.93
2023-03-29T06:38:24.169Z,22.94
2023-03-29T06:39:24.164Z,22.96
2023-03-29T06:40:24.180Z,22.98
2023-03-29T06:41:24.211Z,23.00
2023-03-29T06:42:24.171Z,23.02
2023-03-29T06:43:24.155Z,23.04
2023-03-29T06:44:24.140Z,23.06
2023-03-29T06:45:24.740Z,23.08
2023-03-29T06:46:24.164Z,23.11
2023-03-29T06:47:24.127Z,23.12
2023-03-29T06:48:24.094Z,23.14
2023-03-29T06:49:24.141Z,23.17
2023-03-29T06:50:24.235Z,23.20
2023-03-29T06:51:24.231Z,23.23
2023-03-29T06:52:24.234Z,23.25
2023-03-29T06:53:24.232Z,23.26
2023-03-29T06:54:24.276Z,23.29
2023-03-29T06:55:24.333Z,23.32
2023-03-29T06:56:24.357Z,23.35
2023-03-29T06:57:24.546Z,23.37
2023-03-29T06:58:24.422Z,23.40
2023-03-29T06:59:24.482Z,23.42
2023-03-29T07:00:24.522Z,23.44
2023-03-29T07:01:24.596Z,23.46
2023-03-29T07:02:24.662Z,23.49
2023-03-29T07:03:24.646Z,23.51
2023-03-29T07:04:24.741Z,23.52
2023-03-29T07:05:24.727Z,23.54
2023-03-29T07:06:24.771Z,23.56
2023-03-29T07:07:24.815Z,23.58
2023-03-29T07:08:24.831Z,23.60
2023-03-29T07:09:24.870Z,23.62
2023-03-29T07:10:25.037Z,23.65
2023-03-29T07:11:24.939Z,23.67
2023-03-29T07:12:24.967Z,23.67
2023-03-29T07:13:24.970Z,23.69
2023-03-29T07:14:24.991Z,23.72
2023-03-29T07:15:25.022Z,23.73
2023-03-29T07:16:25.049Z,23.72
2023-03-29T07:17:25.076Z,23.74
2023-03-29T07:18:25.043Z,23.75
2023-03-29T07:19:25.055Z,23.74
2023-03-29T07:20:25.096Z,23.74
2023-03-29T07:21:25.082Z,23.75
2023-03-29T07:22:25.073Z,23.73
2023-03-29T07:23:25.093Z,23.73
2023-03-29T07:24:25.099Z,23.71
2023-03-29T07:25:25.144Z,23.70
2023-03-29T07:26:28.969Z,23.68
2023-03-29T07:27:26.146Z,23.66
2023-03-29T07:28:25.136Z,23.62
2023-03-29T07:29:25.113Z,23.60
2023-03-29T07:30:25.135Z,23.58
2023-03-29T07:31:25.082Z,23.56
2023-03-29T07:32:25.134Z,23.54
2023-03-29T07:33:25.127Z,23.51
2023-03-29T07:34:25.049Z,23.49
2023-03-29T07:35:25.018Z,23.47
2023-03-29T07:36:25.001Z,23.45
2023-03-29T07:37:25.052Z,23.43
2023-03-29T07:38:25.106Z,23.42
2023-03-29T07:39:25.129Z,23.40
2023-03-29T07:40:25.235Z,23.39
2023-03-29T07:41:25.106Z,23.37
2023-03-29T07:42:25.097Z,23.36
2023-03-29T07:43:25.115Z,23.34
2023-03-29T07:44:25.182Z,23.33
2023-03-29T07:45:26.521Z,23.32
2023-03-29T07:46:25.291Z,23.30
2023-03-29T07:47:25.156Z,23.29
2023-03-29T07:48:25.105Z,23.28
2023-03-29T07:49:25.081Z,23.26
2023-03-29T07:50:25.063Z,23.25
2023-03-29T07:51:25.040Z,23.24
2023-03-29T07:52:25.034Z,23.23
2023-03-29T07:53:25.017Z,23.23
2023-03-29T07:54:25.046Z,23.21
2023-03-29T07:55:24.966Z,23.20
2023-03-29T07:56:25.006Z,23.19
2023-03-29T07:57:25.107Z,23.18
2023-03-29T07:58:24.923Z,23.17
2023-03-29T07:59:24.911Z,23.15
2023-03-29T08:00:25.924Z,23.15
2023-03-29T08:01:24.948Z,23.14
2023-03-29T08:02:24.892Z,23.14
2023-03-29T08:03:24.898Z,23.13
2023-03-29T08:04:24.994Z,23.12
2023-03-29T08:05:37.604Z,23.12
2023-03-29T08:06:25.777Z,23.09
2023-03-29T08:07:24.739Z,23.09
2023-03-29T08:08:24.746Z,23.08
2023-03-29T08:09:24.713Z,23.07
2023-03-29T08:10:24.709Z,23.07
2023-03-29T08:11:24.682Z,23.06
2023-03-29T08:12:25.096Z,23.07
2023-03-29T08:13:24.656Z,23.09
2023-03-29T08:14:24.637Z,23.10
2023-03-29T08:15:24.625Z,23.10
2023-03-29T08:16:24.639Z,23.12
2023-03-29T08:17:24.634Z,23.16
2023-03-29T08:18:24.571Z,23.13
2023-03-29T08:19:24.552Z,23.01
2023-03-29T08:20:24.544Z,22.89
2023-03-29T08:21:24.534Z,22.81
2023-03-29T08:22:24.512Z,22.75
2023-03-29T08:23:24.518Z,22.73
2023-03-29T08:24:24.493Z,22.71
2023-03-29T08:25:24.480Z,22.72
2023-03-29T08:26:24.469Z,22.76
2023-03-29T08:27:24.450Z,22.80
2023-03-29T08:28:24.439Z,22.84
2023-03-29T08:29:25.284Z,22.87
2023-03-29T08:30:24.428Z,22.93
2023-03-29T08:31:24.465Z,22.97
2023-03-29T08:32:24.468Z,23.03
2023-03-29T08:33:24.420Z,23.07
2023-03-29T08:34:25.384Z,23.10
2023-03-29T08:35:24.366Z,23.16
2023-03-29T08:36:25.288Z,23.20
2023-03-29T08:37:24.331Z,23.24
2023-03-29T08:38:24.462Z,23.28
2023-03-29T08:39:24.277Z,23.32
2023-03-29T08:40:24.250Z,23.35
2023-03-29T08:41:24.233Z,23.38
2023-03-29T08:42:24.249Z,23.40
2023-03-29T08:43:24.297Z,23.43
2023-03-29T08:44:24.341Z,23.45
2023-03-29T08:45:24.380Z,23.48
2023-03-29T08:46:24.451Z,23.50
2023-03-29T08:47:24.472Z,23.52
2023-03-29T08:48:25.209Z,23.54
2023-03-29T08:49:24.531Z,23.56
2023-03-29T08:50:24.544Z,23.58
2023-03-29T08:51:24.599Z,23.59
2023-03-29T08:52:25.217Z,23.61
2023-03-29T08:53:24.641Z,23.63
2023-03-29T08:54:24.665Z,23.66
2023-03-29T08:55:24.684Z,23.68
2023-03-29T08:56:24.706Z,23.70
2023-03-29T08:57:25.815Z,23.71
2023-03-29T08:58:24.667Z,23.74
2023-03-29T08:59:24.636Z,23.75
2023-03-29T09:00:24.619Z,23.77
2023-03-29T09:01:24.582Z,23.79
2023-03-29T09:02:24.648Z,23.81
2023-03-29T09:03:24.599Z,23.82
2023-03-29T09:04:24.504Z,23.83
2023-03-29T09:05:24.484Z,23.84
2023-03-29T09:06:24.453Z,23.86
2023-03-29T09:07:26.453Z,23.87
2023-03-29T09:08:24.403Z,23.89
2023-03-29T09:09:24.369Z,23.90
2023-03-29T09:10:24.336Z,23.92
2023-03-29T09:11:24.350Z,23.93
2023-03-29T09:12:24.283Z,23.94
2023-03-29T09:13:24.276Z,23.97
2023-03-29T09:14:24.227Z,23.98
2023-03-29T09:15:24.212Z,24.00
2023-03-29T09:16:24.194Z,24.01
2023-03-29T09:17:24.179Z,24.04
2023-03-29T09:18:24.182Z,24.04
2023-03-29T09:19:24.161Z,24.06
2023-03-29T09:20:24.143Z,24.05
2023-03-29T09:21:24.143Z,24.06
2023-03-29T09:22:24.148Z,24.08
2023-03-29T09:23:24.133Z,24.09
2023-03-29T09:24:24.114Z,24.11
2023-03-29T09:25:24.113Z,24.13
2023-03-29T09:26:24.100Z,24.14
2023-03-29T09:27:24.114Z,24.15
2023-03-29T09:28:24.144Z,24.17
2023-03-29T09:29:24.041Z,24.17
2023-03-29T09:30:24.018Z,24.18
2023-03-29T09:31:24.028Z,24.19
2023-03-29T09:32:24.082Z,24.20
2023-03-29T09:33:23.989Z,24.21
2023-03-29T09:34:23.934Z,24.21
2023-03-29T09:35:23.945Z,24.22
2023-03-29T09:36:23.898Z,24.23
2023-03-29T09:37:23.879Z,24.22
2023-03-29T09:38:23.857Z,24.23
2023-03-29T09:39:23.853Z,24.23
2023-03-29T09:40:23.837Z,24.23
2023-03-29T09:41:23.819Z,24.23
2023-03-29T09:42:23.792Z,24.23
2023-03-29T09:43:23.774Z,24.25
2023-03-29T09:44:30.763Z,24.26
2023-03-29T09:45:24.740Z,24.26
2023-03-29T09:46:23.704Z,24.27
2023-03-29T09:47:23.693Z,24.26
2023-03-29T09:48:23.645Z,24.29
2023-03-29T09:49:23.607Z,24.28
2023-03-29T09:50:31.718Z,24.30
2023-03-29T09:51:24.553Z,24.31
2023-03-29T09:52:23.534Z,24.31
2023-03-29T09:53:23.496Z,24.32
2023-03-29T09:54:23.453Z,24.34
2023-03-29T09:55:23.416Z,24.33
2023-03-29T09:56:23.387Z,24.33
2023-03-29T09:57:23.397Z,24.33
2023-03-29T09:58:23.349Z,24.33
2023-03-29T09:59:23.303Z,24.33
2023-03-29T10:00:23.281Z,24.34
2023-03-29T10:01:23.298Z,24.34
2023-03-29T10:02:23.225Z,24.35
2023-03-29T10:03:23.172Z,24.36
2023-03-29T10:04:23.216Z,24.37
2023-03-29T10:05:23.146Z,24.39
2023-03-29T10:06:23.155Z,24.39
2023-03-29T10:07:23.159Z,24.40
2023-03-29T10:08:23.192Z,24.40
2023-03-29T10:09:23.211Z,24.42
2023-03-29T10:10:23.243Z,24.42
2023-03-29T10:11:23.362Z,24.43
2023-03-29T10:12:23.307Z,24.44
2023-03-29T10:13:23.343Z,24.44
2023-03-29T10:14:23.348Z,24.45
2023-03-29T10:15:29.732Z,24.44
2023-03-29T10:16:24.375Z,24.37
2023-03-29T10:17:23.325Z,24.33
2023-03-29T10:18:23.231Z,24.29
2023-03-29T10:19:23.222Z,24.24
2023-03-29T10:20:23.178Z,24.22
2023-03-29T10:21:23.174Z,24.18
2023-03-29T10:22:23.148Z,24.14
2023-03-29T10:23:23.068Z,24.09
2023-03-29T10:24:23.049Z,24.05
2023-03-29T10:25:23.012Z,24.02
2023-03-29T10:26:23.009Z,24.00
2023-03-29T10:27:22.971Z,23.99
2023-03-29T10:28:22.958Z,23.98
2023-03-29T10:29:22.996Z,23.98
2023-03-29T10:30:23.028Z,23.98
2023-03-29T10:31:23.151Z,23.98
2023-03-29T10:32:23.245Z,23.99
2023-03-29T10:33:23.115Z,23.99
2023-03-29T10:34:23.142Z,24.02
2023-03-29T10:35:23.157Z,24.05
2023-03-29T10:36:23.176Z,24.07
2023-03-29T10:37:23.196Z,24.10
2023-03-29T10:38:23.204Z,24.12
2023-03-29T10:39:23.210Z,24.14
2023-03-29T10:40:23.234Z,24.14
2023-03-29T10:41:23.226Z,24.16
2023-03-29T10:42:23.192Z,24.17
2023-03-29T10:43:23.218Z,24.19
2023-03-29T10:44:23.196Z,24.21
2023-03-29T10:45:23.194Z,24.23
2023-03-29T10:46:23.255Z,24.25
2023-03-29T10:47:23.345Z,24.27
2023-03-29T10:48:23.163Z,24.29
2023-03-29T10:49:24.128Z,24.30
2023-03-29T10:50:23.092Z,24.31
2023-03-29T10:51:23.074Z,24.32
2023-03-29T10:52:23.845Z,24.35
2023-03-29T10:53:23.014Z,24.36
2023-03-29T10:54:22.977Z,24.37
2023-03-29T10:55:22.952Z,24.38
2023-03-29T10:56:22.925Z,24.39
2023-03-29T10:57:23.008Z,24.39
2023-03-29T10:58:22.852Z,24.38
2023-03-29T10:59:22.823Z,24.39
2023-03-29T11:00:22.772Z,24.39
2023-03-29T11:01:22.790Z,24.39
2023-03-29T11:02:22.749Z,24.39
2023-03-29T11:03:22.811Z,24.40
2023-03-29T11:04:22.632Z,24.40
2023-03-29T11:05:22.611Z,24.40
2023-03-29T11:06:22.573Z,24.41
2023-03-29T11:07:22.563Z,24.37
2023-03-29T11:08:22.504Z,24.34
2023-03-29T11:09:22.477Z,24.31
2023-03-29T11:10:22.448Z,24.29
2023-03-29T11:11:22.405Z,24.27
2023-03-29T11:12:22.373Z,24.27
2023-03-29T11:13:22.348Z,24.25
2023-03-29T11:14:22.326Z,24.24
2023-03-29T11:15:22.330Z,24.24
2023-03-29T11:16:22.428Z,24.22
2023-03-29T11:17:22.360Z,24.22
2023-03-29T11:18:22.313Z,24.22
2023-03-29T11:19:22.312Z,24.22
2023-03-29T11:20:22.320Z,24.20
2023-03-29T11:21:22.306Z,24.20
2023-03-29T11:22:22.296Z,24.20
2023-03-29T11:23:22.308Z,24.19
2023-03-29T11:24:22.335Z,24.17
2023-03-29T11:25:22.298Z,24.15
2023-03-29T11:26:22.308Z,24.16
2023-03-29T11:27:22.312Z,24.15
2023-03-29T11:28:22.316Z,24.15
2023-03-29T11:29:22.319Z,24.13
2023-03-29T11:30:22.330Z,24.12
2023-03-29T11:31:22.363Z,24.12
2023-03-29T11:32:22.366Z,24.10
2023-03-29T11:33:22.382Z,24.09
2023-03-29T11:34:22.381Z,24.08
2023-03-29T11:35:22.382Z,24.07
2023-03-29T11:36:22.411Z,24.05
2023-03-29T11:37:22.425Z,24.02
2023-03-29T11:38:22.463Z,23.99
2023-03-29T11:39:22.484Z,23.96
2023-03-29T11:40:22.525Z,23.94
2023-03-29T11:41:22.543Z,23.91
2023-03-29T11:42:23.283Z,23.89
2023-03-29T11:43:22.598Z,23.87
2023-03-29T11:44:22.642Z,23.84
2023-03-29T11:45:22.700Z,23.82
2023-03-29T11:46:22.805Z,23.80
2023-03-29T11:47:22.751Z,23.78
2023-03-29T11:48:22.782Z,23.77
2023-03-29T11:49:22.810Z,23.76
2023-03-29T11:50:22.844Z,23.74
2023-03-29T11:51:22.898Z,23.74
2023-03-29T11:52:22.939Z,23.73
2023-03-29T11:53:22.947Z,23.72
2023-03-29T11:54:22.983Z,23.72
2023-03-29T11:55:23.045Z,23.70
2023-03-29T11:56:23.067Z,23.69
2023-03-29T11:57:23.160Z,23.68
2023-03-29T11:58:23.148Z,23.67
2023-03-29T11:59:23.178Z,23.67
2023-03-29T12:00:23.237Z,23.65
2023-03-29T12:01:23.267Z,23.65
2023-03-29T12:02:23.425Z,23.65
2023-03-29T12:03:23.406Z,23.63
2023-03-29T12:04:23.395Z,23.62
2023-03-29T12:05:23.404Z,23.62
2023-03-29T12:06:23.434Z,23.62
2023-03-29T12:07:23.403Z,23.61
2023-03-29T12:08:23.385Z,23.60
2023-03-29T12:09:23.414Z,23.60
2023-03-29T12:10:23.406Z,23.59
2023-03-29T12:11:23.445Z,23.58
2023-03-29T12:12:23.436Z,23.58
2023-03-29T12:13:23.445Z,23.57
2023-03-29T12:14:24.460Z,23.56
2023-03-29T12:15:23.404Z,23.56
2023-03-29T12:16:23.433Z,23.56
2023-03-29T12:17:23.389Z,23.55
2023-03-29T12:18:23.322Z,23.54
2023-03-29T12:19:23.320Z,23.53
2023-03-29T12:20:23.373Z,23.53
2023-03-29T12:21:23.410Z,23.51
2023-03-29T12:22:23.452Z,23.50
2023-03-29T12:23:23.522Z,23.51
2023-03-29T12:24:23.542Z,23.49
2023-03-29T12:25:23.555Z,23.49
2023-03-29T12:26:23.526Z,23.48
2023-03-29T12:27:23.510Z,23.47
2023-03-29T12:28:23.542Z,23.46
2023-03-29T12:29:23.564Z,23.45
2023-03-29T12:30:23.580Z,23.45
2023-03-29T12:31:23.660Z,23.43
2023-03-29T12:32:23.692Z,23.44
2023-03-29T12:33:23.742Z,23.43
2023-03-29T12:34:23.814Z,23.42
2023-03-29T12:35:23.895Z,23.41
2023-03-29T12:36:23.877Z,23.41
2023-03-29T12:37:23.848Z,23.40
2023-03-29T12:38:23.848Z,23.39
2023-03-29T12:39:23.814Z,23.39
2023-03-29T12:40:23.798Z,23.39
2023-03-29T12:41:23.858Z,23.37
2023-03-29T12:42:23.826Z,23.37
2023-03-29T12:43:23.819Z,23.37
2023-03-29T12:44:23.815Z,23.36
2023-03-29T12:45:23.780Z,23.35
2023-03-29T12:46:23.793Z,23.35
2023-03-29T12:47:23.832Z,23.34
2023-03-29T12:48:23.897Z,23.34
2023-03-29T12:49:23.905Z,23.34
2023-03-29T12:50:23.869Z,23.32
2023-03-29T12:51:23.873Z,23.31
2023-03-29T12:52:23.842Z,23.30